Terminal Aerodrome Forecast
Issued by NWS

Home | Current Version | Previous Version | Text Only | Print | Product List | Glossary Off
Versions: 1 2 3 4 5 6 7 8 9 10 11 12 13 14

000
FTUS45 KGGW 220540
TAFGDV
TAF
KGDV 220540Z 2206/2306 36006KT P6SM VCSH BKN020
     FM220700 35006KT 6SM -SHRA BKN015
     FM220900 34007KT 6SM -RASN OVC010
     FM221300 35010KT 2SM -SN OVC004
     FM221800 01011KT P6SM VCSH OVC009
     FM222100 01010KT P6SM OVC015=

USA.gov is the U.S. government's official web portal to all federal, state and local government web resources and services.